createdAt,value
2023-12-11T00:01:42.644Z,76.00
2023-12-11T00:04:08.933Z,75.77
2023-12-11T00:06:35.278Z,76.76
2023-12-11T00:09:01.467Z,76.76
2023-12-11T00:11:27.672Z,77.00
2023-12-11T00:13:53.822Z,76.24
2023-12-11T00:16:19.974Z,75.99
2023-12-11T00:18:46.325Z,76.54
2023-12-11T00:21:12.551Z,77.02
2023-12-11T00:23:38.701Z,75.59
2023-12-11T00:26:04.852Z,76.24
2023-12-11T00:28:31.036Z,76.43
2023-12-11T00:30:57.267Z,75.98
2023-12-11T00:33:23.532Z,75.45
2023-12-11T00:35:49.703Z,75.56
2023-12-11T00:38:15.868Z,75.29
2023-12-11T00:40:42.017Z,74.42
2023-12-11T00:43:08.232Z,74.98
2023-12-11T00:45:34.468Z,74.94
2023-12-11T00:48:00.795Z,74.79
2023-12-11T00:50:27.006Z,74.83
2023-12-11T00:52:53.167Z,74.97
2023-12-11T00:55:19.310Z,74.44
2023-12-11T00:57:45.610Z,74.77
2023-12-11T01:00:12.223Z,74.80
2023-12-11T01:02:38.427Z,75.26
2023-12-11T01:05:04.639Z,75.51
2023-12-11T01:07:31.158Z,75.36
2023-12-11T01:09:57.647Z,75.57
2023-12-11T01:12:23.892Z,75.74
2023-12-11T01:14:50.056Z,75.88
2023-12-11T01:17:37.231Z,76.36
2023-12-11T01:20:02.509Z,76.09
2023-12-11T01:22:28.764Z,76.17
2023-12-11T01:24:54.945Z,75.78
2023-12-11T01:27:21.174Z,76.30
2023-12-11T01:29:47.386Z,76.10
2023-12-11T01:32:13.551Z,76.60
2023-12-11T01:34:39.782Z,76.14
2023-12-11T01:37:06.068Z,75.59
2023-12-11T01:39:32.349Z,75.30
2023-12-11T01:41:58.542Z,76.20
2023-12-11T01:44:24.776Z,75.97
2023-12-11T01:46:51.058Z,76.00
2023-12-11T01:49:17.355Z,75.97
2023-12-11T01:51:43.551Z,75.79
2023-12-11T01:54:09.705Z,75.83
2023-12-11T01:56:35.859Z,75.13
2023-12-11T01:59:02.052Z,74.31
2023-12-11T02:01:28.334Z,74.70
2023-12-11T02:03:54.677Z,74.42
2023-12-11T02:06:20.946Z,74.50
2023-12-11T02:08:47.113Z,73.70
2023-12-11T02:11:13.265Z,74.49
2023-12-11T02:13:39.419Z,74.40
2023-12-11T02:16:05.669Z,73.93
2023-12-11T02:18:32.036Z,73.94
2023-12-11T02:20:58.242Z,74.60
2023-12-11T02:23:24.425Z,74.46
2023-12-11T02:25:50.609Z,74.90
2023-12-11T02:28:16.842Z,74.28
2023-12-11T02:30:43.025Z,74.70
2023-12-11T02:33:09.262Z,74.79
2023-12-11T02:35:35.444Z,74.18
2023-12-11T02:38:01.622Z,74.72
2023-12-11T02:40:27.781Z,74.37
2023-12-11T02:42:54.022Z,74.59
2023-12-11T02:45:20.206Z,74.63
2023-12-11T02:47:46.461Z,74.39
2023-12-11T02:50:12.682Z,74.33
2023-12-11T02:52:38.901Z,74.78
2023-12-11T02:55:05.114Z,74.82
2023-12-11T02:57:31.481Z,74.60
2023-12-11T02:59:57.803Z,74.79
2023-12-11T03:02:23.959Z,74.35
2023-12-11T03:04:50.140Z,74.58
2023-12-11T03:07:16.380Z,74.81
2023-12-11T03:09:42.642Z,74.59
2023-12-11T03:12:08.838Z,74.09
2023-12-11T03:14:34.984Z,73.58
2023-12-11T03:17:01.147Z,73.67
2023-12-11T03:19:27.440Z,73.04
2023-12-11T03:21:53.644Z,72.70
2023-12-11T03:24:19.851Z,72.69
2023-12-11T03:26:46.002Z,73.72
2023-12-11T03:29:12.150Z,73.50
2023-12-11T03:31:38.366Z,73.68
2023-12-11T03:34:04.586Z,73.74
2023-12-11T03:36:30.869Z,73.76
2023-12-11T03:38:57.070Z,73.46
2023-12-11T03:41:23.261Z,73.20
2023-12-11T03:43:49.424Z,73.00
2023-12-11T03:46:15.623Z,73.15
2023-12-11T03:48:41.931Z,72.20
2023-12-11T03:51:08.240Z,72.93
2023-12-11T03:53:34.395Z,72.83
2023-12-11T03:56:00.557Z,71.79
2023-12-11T03:58:26.740Z,72.21
2023-12-11T04:00:53.020Z,71.71
2023-12-11T04:03:19.270Z,71.77
2023-12-11T04:05:45.441Z,71.70
2023-12-11T04:08:11.630Z,71.88
2023-12-11T04:10:37.790Z,72.47
2023-12-11T04:13:04.110Z,73.55
2023-12-11T04:15:30.305Z,74.09
2023-12-11T04:17:56.545Z,73.43
2023-12-11T04:20:22.732Z,74.76
2023-12-11T04:22:48.902Z,75.24
2023-12-11T04:25:15.091Z,75.24
2023-12-11T04:27:41.275Z,74.82
2023-12-11T04:30:07.510Z,74.70
2023-12-11T04:32:41.329Z,74.95
2023-12-11T04:35:07.543Z,74.44
2023-12-11T04:37:33.803Z,74.72
2023-12-11T04:40:00.067Z,74.92
2023-12-11T04:42:26.321Z,74.71
2023-12-11T04:44:52.497Z,74.24
2023-12-11T04:47:18.694Z,74.27
2023-12-11T04:49:45.052Z,74.58
2023-12-11T04:52:11.475Z,74.45
2023-12-11T04:54:37.780Z,74.26
2023-12-11T04:57:04.032Z,73.90
2023-12-11T04:59:30.273Z,73.37
2023-12-11T05:01:56.959Z,73.53
2023-12-11T05:04:23.732Z,73.78
2023-12-11T05:06:50.027Z,74.10
2023-12-11T05:09:16.270Z,75.69
2023-12-11T05:11:42.507Z,75.83
2023-12-11T05:14:08.736Z,76.94
2023-12-11T05:16:38.105Z,76.13
2023-12-11T05:19:05.002Z,77.09
2023-12-11T05:21:31.332Z,76.99
2023-12-11T05:23:57.535Z,77.88
2023-12-11T05:26:23.772Z,78.79
2023-12-11T05:28:50.004Z,79.62
2023-12-11T05:31:16.345Z,80.43
2023-12-11T05:33:42.692Z,80.97
2023-12-11T05:36:09.079Z,80.59
2023-12-11T05:38:35.254Z,79.80
2023-12-11T05:41:01.523Z,79.12
2023-12-11T05:43:27.772Z,78.26
2023-12-11T05:45:54.014Z,77.45
2023-12-11T05:48:20.400Z,78.82
2023-12-11T05:50:46.712Z,78.58
2023-12-11T05:53:12.876Z,78.45
2023-12-11T05:55:39.121Z,78.23
2023-12-11T05:58:05.339Z,78.68
2023-12-11T06:00:31.725Z,79.15
2023-12-11T06:02:58.013Z,78.70
2023-12-11T06:05:24.251Z,79.50
2023-12-11T06:07:50.465Z,79.57
2023-12-11T06:10:16.700Z,79.66
2023-12-11T06:12:43.449Z,78.88
2023-12-11T06:15:10.667Z,79.44
2023-12-11T06:17:37.399Z,79.25
2023-12-11T06:20:03.723Z,78.67
2023-12-11T06:22:29.917Z,78.63
2023-12-11T06:24:56.175Z,78.89
2023-12-11T06:27:22.573Z,78.11
2023-12-11T06:32:28.932Z,78.46
2023-12-11T06:34:55.369Z,77.96
2023-12-11T06:37:21.742Z,78.11
2023-12-11T06:39:48.184Z,78.19
2023-12-11T06:42:14.366Z,78.28
2023-12-11T06:44:40.520Z,79.32
2023-12-11T06:47:06.703Z,79.97
2023-12-11T06:49:33.086Z,80.75
2023-12-11T06:51:59.325Z,81.23
2023-12-11T06:54:25.511Z,79.80
2023-12-11T06:56:51.799Z,79.50
2023-12-11T06:59:18.252Z,79.34
2023-12-11T07:01:44.560Z,79.10
2023-12-11T07:04:11.258Z,79.14
2023-12-11T07:06:37.563Z,78.19
2023-12-11T07:09:04.061Z,78.34
2023-12-11T07:11:30.268Z,77.90
2023-12-11T07:13:56.632Z,78.99
2023-12-11T07:16:23.203Z,79.45
2023-12-11T07:18:49.526Z,79.63
2023-12-11T07:21:15.759Z,79.55
2023-12-11T07:23:41.981Z,79.25
2023-12-11T07:26:08.185Z,78.42
2023-12-11T07:28:34.355Z,77.61
2023-12-11T07:31:00.580Z,77.79
2023-12-11T07:33:26.888Z,77.73
2023-12-11T07:35:53.107Z,77.74
2023-12-11T07:38:19.333Z,76.88
2023-12-11T07:40:45.554Z,76.95
2023-12-11T07:43:11.772Z,76.62
2023-12-11T07:45:38.462Z,76.55
2023-12-11T07:48:04.717Z,76.09
2023-12-11T07:50:30.942Z,76.73
2023-12-11T07:52:57.119Z,76.35
2023-12-11T07:55:23.314Z,77.75
2023-12-11T07:57:49.601Z,78.41
2023-12-11T08:00:15.802Z,78.98
2023-12-11T08:02:42.056Z,79.91
2023-12-11T08:05:08.317Z,80.30
2023-12-11T08:07:34.859Z,81.17
2023-12-11T08:10:01.349Z,81.73
2023-12-11T08:12:27.689Z,81.63
2023-12-11T08:14:53.909Z,82.06
2023-12-11T08:17:20.072Z,80.79
2023-12-11T08:19:46.526Z,81.11
2023-12-11T08:22:12.868Z,79.91
2023-12-11T08:24:39.228Z,79.88
2023-12-11T08:27:05.508Z,78.81
2023-12-11T08:29:31.731Z,78.98
2023-12-11T08:31:57.911Z,79.19
2023-12-11T08:34:24.245Z,78.98
2023-12-11T08:36:50.532Z,79.42
2023-12-11T08:39:16.740Z,79.27
2023-12-11T08:41:42.955Z,79.58
2023-12-11T08:44:09.151Z,80.88
2023-12-11T08:46:35.406Z,82.85
2023-12-11T08:49:01.756Z,83.20
2023-12-11T08:51:28.023Z,83.22
2023-12-11T08:53:54.280Z,83.85
2023-12-11T08:56:20.522Z,84.10
2023-12-11T08:58:46.736Z,83.97
2023-12-11T09:01:13.099Z,84.28
2023-12-11T09:03:39.391Z,83.99
2023-12-11T09:06:05.648Z,81.84
2023-12-11T09:08:31.873Z,80.29
2023-12-11T09:10:58.128Z,80.00
2023-12-11T09:13:27.392Z,80.13
2023-12-11T09:15:55.393Z,79.90
2023-12-11T09:18:21.744Z,79.31
2023-12-11T09:20:47.976Z,79.05
2023-12-11T09:23:14.192Z,78.76
2023-12-11T09:25:40.401Z,78.53
2023-12-11T09:28:06.659Z,77.46
2023-12-11T09:30:32.884Z,77.47
2023-12-11T09:32:59.142Z,76.56
2023-12-11T09:35:25.555Z,77.70
2023-12-11T09:37:53.899Z,76.78
2023-12-11T09:40:20.324Z,77.71
2023-12-11T09:42:46.701Z,77.54
2023-12-11T09:45:12.994Z,77.01
2023-12-11T09:47:39.295Z,76.17
2023-12-11T09:50:05.610Z,75.41
2023-12-11T09:52:33.120Z,75.12
2023-12-11T09:55:00.794Z,75.82
2023-12-11T09:57:27.014Z,75.36
2023-12-11T09:59:53.197Z,74.10
2023-12-11T10:02:19.596Z,74.99
2023-12-11T10:04:45.955Z,75.25
2023-12-11T10:07:15.071Z,75.99
2023-12-11T10:09:41.316Z,75.83
2023-12-11T10:12:07.638Z,76.00
2023-12-11T10:14:33.830Z,76.44
2023-12-11T10:17:00.004Z,77.31
2023-12-11T10:19:26.395Z,78.32
2023-12-11T10:21:52.752Z,77.87
2023-12-11T10:24:18.947Z,78.83
2023-12-11T10:26:45.127Z,78.60
2023-12-11T10:29:11.303Z,78.53
2023-12-11T10:31:37.492Z,78.39
2023-12-11T10:34:03.859Z,77.23
2023-12-11T10:36:30.161Z,77.25
2023-12-11T10:38:56.354Z,76.81
2023-12-11T10:41:22.567Z,76.34
2023-12-11T10:44:01.534Z,75.34
2023-12-11T10:46:35.086Z,75.46
2023-12-11T10:49:01.542Z,75.11
2023-12-11T10:51:27.895Z,74.05
2023-12-11T10:53:54.151Z,73.74
2023-12-11T10:56:20.485Z,74.11
2023-12-11T10:58:46.786Z,74.32
2023-12-11T11:01:13.037Z,74.81
2023-12-11T11:03:39.395Z,75.14
2023-12-11T11:06:05.694Z,75.31
2023-12-11T11:08:32.004Z,76.72
2023-12-11T11:10:58.239Z,78.12
2023-12-11T11:13:24.545Z,79.30
2023-12-11T11:15:50.781Z,81.08
2023-12-11T11:18:17.086Z,82.28
2023-12-11T11:20:43.305Z,83.34
2023-12-11T11:23:09.589Z,84.30
2023-12-11T11:25:36.489Z,83.64
2023-12-11T11:28:02.817Z,82.51
2023-12-11T11:30:29.041Z,82.46
2023-12-11T11:32:55.319Z,81.70
2023-12-11T11:35:21.550Z,80.93
2023-12-11T11:37:47.753Z,80.73
2023-12-11T11:40:14.072Z,79.27
2023-12-11T11:42:40.385Z,79.37
2023-12-11T11:45:06.655Z,78.99
2023-12-11T11:47:33.201Z,78.65
2023-12-11T11:49:59.737Z,78.88
2023-12-11T11:52:26.003Z,79.01
2023-12-11T11:54:52.251Z,79.13
2023-12-11T11:57:18.441Z,78.02
2023-12-11T11:59:44.628Z,77.89
2023-12-11T12:02:10.806Z,77.20
2023-12-11T12:04:37.041Z,78.16
2023-12-11T12:07:03.297Z,77.68
2023-12-11T12:09:29.499Z,77.43
2023-12-11T12:11:55.677Z,77.25
2023-12-11T12:14:23.031Z,76.29
2023-12-11T12:16:49.404Z,76.33
2023-12-11T12:19:15.696Z,75.87
2023-12-11T12:21:41.963Z,75.30
2023-12-11T12:24:08.171Z,75.90
2023-12-11T12:26:34.429Z,76.14
2023-12-11T12:29:00.635Z,75.26
2023-12-11T12:31:26.872Z,75.50
2023-12-11T12:33:53.579Z,73.58
2023-12-11T12:36:19.849Z,74.29
2023-12-11T12:38:46.027Z,74.19
2023-12-11T12:41:12.222Z,73.58
2023-12-11T12:43:38.378Z,73.76
2023-12-11T12:46:04.680Z,73.29
2023-12-11T12:48:31.016Z,73.37
2023-12-11T12:50:57.318Z,73.33
2023-12-11T12:53:23.511Z,72.91
2023-12-11T12:55:49.697Z,73.72
2023-12-11T12:58:17.936Z,73.36
2023-12-11T13:00:45.109Z,73.04
2023-12-11T13:03:11.414Z,73.11
2023-12-11T13:05:37.701Z,73.08
2023-12-11T13:08:03.917Z,73.41
2023-12-11T13:10:30.162Z,73.07
2023-12-11T13:12:56.403Z,73.26
2023-12-11T13:15:22.676Z,72.30
2023-12-11T13:17:48.912Z,73.65
2023-12-11T13:20:15.175Z,73.16
2023-12-11T13:22:41.469Z,73.41
2023-12-11T13:25:07.712Z,72.79
2023-12-11T13:27:33.933Z,72.14
2023-12-11T13:30:00.232Z,72.20
2023-12-11T13:32:26.571Z,71.97
2023-12-11T13:34:52.942Z,72.83
2023-12-11T13:37:19.205Z,72.94
2023-12-11T13:39:45.453Z,72.44
2023-12-11T13:42:11.713Z,72.80
2023-12-11T13:44:37.903Z,72.99
2023-12-11T13:47:04.088Z,73.09
2023-12-11T13:49:30.364Z,71.92
2023-12-11T13:51:56.684Z,71.78
2023-12-11T13:54:22.871Z,71.52
2023-12-11T13:56:49.299Z,70.15
2023-12-11T13:59:15.503Z,69.47
2023-12-11T14:01:41.787Z,70.36
2023-12-11T14:04:08.076Z,69.56
2023-12-11T14:06:34.304Z,70.18
2023-12-11T14:09:00.506Z,69.48
2023-12-11T14:11:26.713Z,68.28
2023-12-11T14:13:52.877Z,69.08
2023-12-11T14:16:19.152Z,68.90
2023-12-11T14:18:45.428Z,69.45
2023-12-11T14:21:11.682Z,69.56
2023-12-11T14:23:37.890Z,70.20
2023-12-11T14:26:04.294Z,70.54
2023-12-11T14:28:30.551Z,71.35
2023-12-11T14:30:56.785Z,71.90
2023-12-11T14:33:23.146Z,71.32
2023-12-11T14:35:49.484Z,71.74
2023-12-11T14:38:15.709Z,71.87
2023-12-11T14:40:41.881Z,71.17
2023-12-11T14:43:08.150Z,71.35
2023-12-11T14:45:34.351Z,71.17
2023-12-11T14:48:00.584Z,71.18
2023-12-11T14:50:26.839Z,71.67
2023-12-11T14:52:53.080Z,73.45
2023-12-11T14:55:25.125Z,73.89
2023-12-11T14:57:52.387Z,73.99
2023-12-11T15:00:18.613Z,73.72
2023-12-11T15:02:44.921Z,73.96
2023-12-11T15:05:11.201Z,73.81
2023-12-11T15:07:37.563Z,74.51
2023-12-11T15:10:03.837Z,76.34
2023-12-11T15:12:30.101Z,76.14
2023-12-11T15:14:56.617Z,77.32
2023-12-11T15:17:22.831Z,77.54
2023-12-11T15:19:49.175Z,78.76
2023-12-11T15:22:15.620Z,78.18
2023-12-11T15:24:41.862Z,78.46
2023-12-11T15:27:08.226Z,78.88
2023-12-11T15:29:34.430Z,79.54
2023-12-11T15:32:00.744Z,79.44
2023-12-11T15:34:27.105Z,79.59
2023-12-11T15:36:53.382Z,79.69
2023-12-11T15:39:19.632Z,80.00
2023-12-11T15:41:45.836Z,79.13
2023-12-11T15:44:12.053Z,78.39
2023-12-11T15:46:38.266Z,77.00
2023-12-11T15:49:04.724Z,76.71
2023-12-11T15:51:31.128Z,75.94
2023-12-11T15:53:57.324Z,76.31
2023-12-11T15:56:23.529Z,76.17
2023-12-11T15:58:49.707Z,75.45
2023-12-11T16:01:16.340Z,76.05
2023-12-11T16:03:42.775Z,75.42
2023-12-11T16:06:09.077Z,76.56
2023-12-11T16:08:35.337Z,76.94
2023-12-11T16:11:01.540Z,77.79
2023-12-11T16:13:27.796Z,77.64
2023-12-11T16:15:54.055Z,77.85
2023-12-11T16:18:20.424Z,77.98
2023-12-11T16:20:46.649Z,78.37
2023-12-11T16:23:12.880Z,79.49
2023-12-11T16:25:48.036Z,79.12
2023-12-11T16:28:22.146Z,78.68
2023-12-11T16:30:48.538Z,78.66
2023-12-11T16:33:14.881Z,79.03
2023-12-11T16:35:41.149Z,79.29
2023-12-11T16:38:07.335Z,79.61
2023-12-11T16:40:33.599Z,80.23
2023-12-11T16:42:59.892Z,80.24
2023-12-11T16:45:26.102Z,79.26
2023-12-11T16:47:52.334Z,79.82
2023-12-11T16:50:19.750Z,80.52
2023-12-11T16:52:45.977Z,80.53
2023-12-11T16:55:12.182Z,80.51
2023-12-11T16:57:38.849Z,81.96
2023-12-11T17:00:05.040Z,82.22
2023-12-11T17:02:31.425Z,83.66
2023-12-11T17:04:57.967Z,84.06
2023-12-11T17:07:24.291Z,84.60
2023-12-11T17:09:50.547Z,85.50
2023-12-11T17:12:18.902Z,84.93
2023-12-11T17:14:45.081Z,85.04
2023-12-11T17:17:11.288Z,86.49
2023-12-11T17:19:37.510Z,86.45
2023-12-11T17:22:03.885Z,86.15
2023-12-11T17:24:30.110Z,87.05
2023-12-11T17:26:56.290Z,87.42
2023-12-11T17:29:22.482Z,86.62
2023-12-11T17:31:48.678Z,87.24
2023-12-11T17:34:14.897Z,87.25
2023-12-11T17:36:41.210Z,87.14
2023-12-11T17:39:07.415Z,87.98
2023-12-11T17:41:33.626Z,87.29
2023-12-11T17:43:59.796Z,87.65
2023-12-11T17:46:26.000Z,87.94
2023-12-11T17:48:52.312Z,87.97
2023-12-11T17:51:18.551Z,87.40
2023-12-11T17:53:44.719Z,87.79
2023-12-11T17:56:10.909Z,87.79
2023-12-11T17:58:37.081Z,87.25
2023-12-11T18:01:03.398Z,87.26
2023-12-11T18:03:31.764Z,87.28
2023-12-11T18:05:58.026Z,87.76
2023-12-11T18:08:24.277Z,86.89
2023-12-11T18:10:50.476Z,87.59
2023-12-11T18:13:16.706Z,87.27
2023-12-11T18:15:43.112Z,86.76
2023-12-11T18:18:09.421Z,87.03
2023-12-11T18:20:35.720Z,86.68
2023-12-11T18:23:01.922Z,87.02
2023-12-11T18:25:28.142Z,86.76
2023-12-11T18:27:54.428Z,86.42
2023-12-11T18:30:20.629Z,86.46
2023-12-11T18:32:46.927Z,85.85
2023-12-11T18:35:13.165Z,85.38
2023-12-11T18:37:39.399Z,85.40
2023-12-11T18:40:05.606Z,85.88
2023-12-11T18:42:31.875Z,84.75
2023-12-11T18:44:58.078Z,84.80
2023-12-11T18:47:24.527Z,85.07
2023-12-11T18:49:50.894Z,84.77
2023-12-11T18:52:17.155Z,84.40
2023-12-11T18:54:43.420Z,84.61
2023-12-11T18:57:09.652Z,85.38
2023-12-11T18:59:35.843Z,84.65
2023-12-11T19:02:02.233Z,84.17
2023-12-11T19:04:28.607Z,84.80
2023-12-11T19:06:55.011Z,84.79
2023-12-11T19:09:21.206Z,84.74
2023-12-11T19:11:47.394Z,84.92
2023-12-11T19:14:13.581Z,83.77
2023-12-11T19:16:39.768Z,84.81
2023-12-11T19:19:06.068Z,83.79
2023-12-11T19:21:32.358Z,83.98
2023-12-11T19:23:58.533Z,84.43
2023-12-11T19:26:24.699Z,84.20
2023-12-11T19:28:50.883Z,83.50
2023-12-11T19:31:17.124Z,83.46
2023-12-11T19:33:43.416Z,83.47
2023-12-11T19:36:09.728Z,83.53
2023-12-11T19:38:35.945Z,83.74
2023-12-11T19:41:02.155Z,83.83
2023-12-11T19:43:28.377Z,83.52
2023-12-11T19:45:54.640Z,83.78
2023-12-11T19:48:21.054Z,83.53
2023-12-11T19:50:47.383Z,84.03
2023-12-11T19:53:13.585Z,84.14
2023-12-11T19:55:39.815Z,83.47
2023-12-11T19:58:06.048Z,84.33
2023-12-11T20:00:32.258Z,83.99
2023-12-11T20:02:58.494Z,83.67
2023-12-11T20:05:24.711Z,83.54
2023-12-11T20:07:50.913Z,83.44
2023-12-11T20:10:17.210Z,83.53
2023-12-11T20:12:43.404Z,82.99
2023-12-11T20:15:09.593Z,83.13
2023-12-11T20:17:36.121Z,83.36
2023-12-11T20:20:02.549Z,84.04
2023-12-11T20:22:28.818Z,83.70
2023-12-11T20:24:55.094Z,83.03
2023-12-11T20:27:21.280Z,83.59
2023-12-11T20:29:47.495Z,83.48
2023-12-11T20:32:13.692Z,82.87
2023-12-11T20:34:39.917Z,83.29
2023-12-11T20:37:06.115Z,82.85
2023-12-11T20:39:32.416Z,83.07
2023-12-11T20:41:58.586Z,83.52
2023-12-11T20:44:24.785Z,82.92
2023-12-11T20:46:50.979Z,82.48
2023-12-11T20:49:17.329Z,82.31
2023-12-11T20:51:43.596Z,82.78
2023-12-11T20:54:09.753Z,82.28
2023-12-11T20:56:35.962Z,82.03
2023-12-11T20:59:02.160Z,81.59
2023-12-11T21:01:28.765Z,81.95
2023-12-11T21:03:55.166Z,81.84
2023-12-11T21:06:21.375Z,81.99
2023-12-11T21:08:47.584Z,81.37
2023-12-11T21:11:13.783Z,80.34
2023-12-11T21:13:39.950Z,80.58
2023-12-11T21:16:06.198Z,80.14
2023-12-11T21:18:32.474Z,80.80
2023-12-11T21:20:58.698Z,80.88
2023-12-11T21:23:24.924Z,80.45
2023-12-11T21:25:51.202Z,80.32
2023-12-11T21:28:17.521Z,79.79
2023-12-11T21:30:43.705Z,80.23
2023-12-11T21:33:09.918Z,80.27
2023-12-11T21:35:36.183Z,79.96
2023-12-11T21:38:02.366Z,79.86
2023-12-11T21:40:28.583Z,80.35
2023-12-11T21:42:54.815Z,79.56
2023-12-11T21:45:21.030Z,79.94
2023-12-11T21:47:47.330Z,79.78
2023-12-11T21:50:13.784Z,79.84
2023-12-11T21:52:40.090Z,80.11
2023-12-11T21:55:06.330Z,80.12
2023-12-11T21:57:32.739Z,79.89
2023-12-11T21:59:59.113Z,80.81
2023-12-11T22:02:25.286Z,80.23
2023-12-11T22:04:51.445Z,80.84
2023-12-11T22:07:17.985Z,80.46
2023-12-11T22:09:44.292Z,80.63
2023-12-11T22:12:10.503Z,80.67
2023-12-11T22:14:36.673Z,80.94
2023-12-11T22:17:02.861Z,80.44
2023-12-11T22:19:29.124Z,80.70
2023-12-11T22:21:55.379Z,80.85
2023-12-11T22:24:21.565Z,81.28
2023-12-11T22:26:47.930Z,81.42
2023-12-11T22:29:14.102Z,81.74
2023-12-11T22:31:40.281Z,81.31
2023-12-11T22:34:06.610Z,81.97
2023-12-11T22:36:32.842Z,81.41
2023-12-11T22:38:59.025Z,81.54
2023-12-11T22:41:25.231Z,81.75
2023-12-11T22:43:51.423Z,82.27
2023-12-11T22:46:17.628Z,82.08
2023-12-11T22:48:43.919Z,82.07
2023-12-11T22:51:10.197Z,81.31
2023-12-11T22:53:36.387Z,81.50
2023-12-11T22:56:02.556Z,81.61
2023-12-11T22:58:28.793Z,81.10
2023-12-11T23:00:55.058Z,81.48
2023-12-11T23:03:21.285Z,81.68
2023-12-11T23:05:47.511Z,81.64
2023-12-11T23:08:13.712Z,82.08
2023-12-11T23:10:39.943Z,82.23
2023-12-11T23:13:06.185Z,82.50
2023-12-11T23:15:32.389Z,82.43
2023-12-11T23:17:58.604Z,81.68
2023-12-11T23:20:24.793Z,81.54
2023-12-11T23:22:51.006Z,82.18
2023-12-11T23:25:19.064Z,81.84
2023-12-11T23:27:46.582Z,82.37
2023-12-11T23:30:12.778Z,81.50
2023-12-11T23:32:38.996Z,81.81
2023-12-11T23:35:05.237Z,82.16
2023-12-11T23:37:31.865Z,81.58
2023-12-11T23:39:58.451Z,81.16
2023-12-11T23:42:24.643Z,81.99
2023-12-11T23:44:50.855Z,81.93
2023-12-11T23:47:17.065Z,82.01
2023-12-11T23:49:43.527Z,81.28
2023-12-11T23:52:09.809Z,81.44
2023-12-11T23:54:36.060Z,81.38
2023-12-11T23:57:02.260Z,81.34
2023-12-11T23:59:28.473Z,80.71
